Live Oak, Florida
Current Conditions -  °F | °C
As of 6:15 AM on Tuesday 21 Oct 2014 (Local Time) from K24J Reporting Station
Overcast Overcast  
Wind Chill: 59°   Ceiling: 500
Heat Index: 59°   Visibility: 0.5mi
Dew Point: 59°   Wind: 0mph
Humidity: 100%   Direction: NA
Pressure: 29.98"   Gusts: NA
Location:  30.3°N, 82.98°W
Report Text: K24J 211015Z AUTO 00000KT 1/2SM VV005 15/15 A2998 RMK AO1
Loading
Personal Weather Stations






























Interactive Weather Map
Tropical Storm Tracking
New forecast layout! Learn more

10-Day Weather Forecast

Advertisements
Track Severe Weather on mobile